Tuesday, September 16, 2014
23:36 UTC
  |  Log In   |  Register Free
Airport Search:

Lenawee County Airport
(KADG)

Lenawee County Airport Diagram
No Airport Diagram Available

FAA data valid effective July 24, 2014 until September 18, 2014 (unless otherwise noted).

 
 
 
 
 
 
 
 
 
 
 
 
 
 

Current Aviation Weather for Lenawee County Airport (KADG)

The most recent METAR observation for KADG was updated at: 2306
METAR Summary (Translated METAR)
KADG
162253Z AUTO 33006KT 10SM CLR 18/06 A3009 RMK AO2 SLP193 T01780056
KUSE
162255Z AUTO 24005KT 10SM CLR 17/08 A3009 RMK AO2
(15.6 nm SW from KADG)
KDUH
162254Z AUTO 00000KT 10SM CLR 18/08 A3010 RMK AO2
(20.4 nm SE from KADG)
TAF
No TAF information found within 50 nm of KADG
  Airport Weather Conditions for KADG

 Current Weather at ADG
64° F
Fair
Northwest winds at 6.9 mph
ADG NOAA Radar

Pressure: 30.09 in
Humidity: 45%
Wind: Northwest at 6.9 MPH (6 KT)
Dew Point: 42.1°F
Visibility: 10.00 mi


Airport Weather Forecast for KADG

Translated METAR and TAF for KADG
Translated METAR for KADG (2330 UTC 16 September 2014)
found at http://aviationweather.gov/adds/metars/
 
METAR text: KADG 162253Z AUTO 33006KT 10SM CLR 18/06 A3009 RMK AO2 SLP193 T01780056
Conditions at: KADG (ADRIAN , MI, US) observed 2253 UTC 16 September 2014
Temperature: 17.8°C (64°F)
Dewpoint: 5.6°C (42°F) [RH = 45%]
Pressure (altimeter): 30.09 inches Hg (1019.0 mb)
[Sea-level pressure: 1019.3 mb]
Winds: from the NNW (330 degrees) at 7 MPH (6 knots; 3.1 m/s)
Visibility: 10 or more miles (16+ km)
Ceiling: at least 12,000 feet AGL
Clouds: sky clear below 12,000 feet AGL
Weather: automated observation with no human augmentation;
there may or may not be significant weather present at this time
Translated TAF for KADG

There is no translated TAF available for this airport

Find All Airport Services Find A Hotel Find A Rental Car Find A Golf Course Find A Restaurant $100 Hamburger



FBO's on the Field
FBO Company Facility Photos Services Transportation Aviation Fuel Prices: Prices include tax
Catering Weather Repair Courtesy Rental Type 100LL JetA JetA+ MOGAS 8087
 
Lenawee County Airport

This FBO has not yet been rated
FS:Avfuel
Last Updated: Aug-28
Login to update fuel prices
SS:
Contact Lenawee County AirportMore FBO Information
 
Add another FBO Facility Photos Catering Weather Repair Courtesy Rental Type 100LL JetA JetA+ MOGAS 8087
Services Transportation Aviation Fuel Prices: Prices include tax


model-print
model-print
model-print
model-print